Time;durP1;ratioP1;P1;durP2;ratioP2;P2;SDS_P1;SDS_P2;PMS_P1;PMS_P2;Temp;Humidity;BMP_temperature;BMP_pressure;BME280_temperature;BME280_humidity;BME280_pressure;Samples;Min_cycle;Max_cycle;Signal;HPM_P1;HPM_P2
2022/01/29 00:01:10;;;;;;;7.75;4.35;;;;;;;0.63;100.00;100668.34;6324152;28;20521;-73
2022/01/29 00:04:11;;;;;;;10.82;5.43;;;;;;;0.62;100.00;100675.22;6324003;28;20056;-73
2022/01/29 00:07:13;;;;;;;13.63;6.05;;;;;;;0.51;100.00;100674.47;6305846;28;20053;-73
2022/01/29 00:10:14;;;;;;;12.73;5.75;;;;;;;0.43;100.00;100683.94;6323893;28;20044;-73
2022/01/29 00:13:15;;;;;;;6.13;3.75;;;;;;;0.41;100.00;100699.34;6305787;28;20040;-72
2022/01/29 00:16:16;;;;;;;9.63;4.35;;;;;;;0.47;100.00;100698.47;6272561;28;20419;-72
2022/01/29 00:19:17;;;;;;;7.15;4.78;;;;;;;0.49;100.00;100709.56;6288920;28;20186;-73
2022/01/29 00:22:18;;;;;;;7.07;4.32;;;;;;;0.57;100.00;100718.91;6305575;28;20118;-73
2022/01/29 00:25:19;;;;;;;7.68;3.78;;;;;;;0.59;100.00;100714.59;6305319;28;20051;-73
2022/01/29 00:28:20;;;;;;;5.10;3.53;;;;;;;0.55;100.00;100732.63;6305219;28;20044;-74
2022/01/29 00:31:21;;;;;;;8.05;4.60;;;;;;;0.61;100.00;100727.44;6323408;28;20408;-73
2022/01/29 00:34:22;;;;;;;6.65;3.80;;;;;;;0.66;100.00;100728.25;6305297;28;20039;-74
2022/01/29 00:37:22;;;;;;;8.00;4.55;;;;;;;0.59;100.00;100734.31;6288383;28;20048;-73
2022/01/29 00:40:24;;;;;;;9.68;4.82;;;;;;;0.52;100.00;100736.06;6323152;28;20298;-73
2022/01/29 00:43:25;;;;;;;7.50;4.10;;;;;;;0.47;100.00;100740.38;6288637;28;20508;-73
2022/01/29 00:46:26;;;;;;;8.95;3.67;;;;;;;0.45;100.00;100734.41;6304646;28;20052;-73
2022/01/29 00:49:26;;;;;;;6.32;3.15;;;;;;;0.51;100.00;100736.94;6323109;28;20040;-73
2022/01/29 00:52:27;;;;;;;8.48;4.18;;;;;;;0.51;100.00;100730.94;6322874;28;20036;-73
2022/01/29 00:55:28;;;;;;;6.95;3.72;;;;;;;0.51;100.00;100736.09;6322767;28;20086;-73
2022/01/29 00:58:29;;;;;;;8.75;3.83;;;;;;;0.49;100.00;100746.38;6322849;28;20089;-73
2022/01/29 01:01:31;;;;;;;8.50;3.78;;;;;;;0.46;100.00;100741.25;6322541;28;20123;-73
2022/01/29 01:04:32;;;;;;;8.80;3.47;;;;;;;0.40;100.00;100746.44;6304790;28;20036;-73
2022/01/29 01:07:33;;;;;;;5.45;3.20;;;;;;;0.38;100.00;100743.03;6322265;28;20055;-73
2022/01/29 01:10:34;;;;;;;6.43;3.80;;;;;;;0.31;100.00;100742.25;6304514;28;20044;-73
2022/01/29 01:13:35;;;;;;;6.28;3.60;;;;;;;0.36;100.00;100748.19;6304329;28;20535;-73
2022/01/29 01:16:36;;;;;;;7.83;3.77;;;;;;;0.36;100.00;100750.75;6304326;28;20409;-73
2022/01/29 01:19:37;;;;;;;6.28;3.30;;;;;;;0.42;100.00;100756.72;6304208;28;20091;-73
2022/01/29 01:22:38;;;;;;;4.70;2.72;;;;;;;0.54;100.00;100754.06;6287534;28;20044;-73
2022/01/29 01:25:39;;;;;;;5.55;3.00;;;;;;;0.48;100.00;100760.09;6322068;28;20036;-73
2022/01/29 01:28:40;;;;;;;9.20;3.30;;;;;;;0.45;100.00;100766.94;6322100;28;20046;-73
2022/01/29 01:31:44;;;;;;;5.70;2.53;;;;;;;0.38;100.00;100763.59;6304024;28;20036;-73
2022/01/29 01:34:50;;;;;;;6.00;2.80;;;;;;;0.35;100.00;100771.28;6304334;28;20043;-73
2022/01/29 01:37:56;;;;;;;5.20;2.95;;;;;;;0.30;100.00;100775.63;6303499;28;20092;-73
2022/01/29 01:41:02;;;;;;;4.38;2.50;;;;;;;0.40;98.74;100785.81;6303577;28;20400;-73
2022/01/29 01:44:04;;;;;;;4.32;2.30;;;;;;;0.37;97.62;100784.97;6321623;28;20044;-73
2022/01/29 01:47:06;;;;;;;8.07;2.70;;;;;;;0.44;95.42;100778.09;6321249;28;20052;-73
2022/01/29 01:50:08;;;;;;;3.72;2.22;;;;;;;0.38;94.06;100777.28;6321624;28;20047;-73
2022/01/29 01:53:10;;;;;;;3.42;2.13;;;;;;;0.45;93.61;100784.94;6287056;28;20040;-73
2022/01/29 01:56:11;;;;;;;4.45;2.38;;;;;;;0.49;91.16;100777.19;6321422;28;20070;-73
2022/01/29 01:59:12;;;;;;;3.55;2.45;;;;;;;0.41;91.14;100781.53;6321300;28;20044;-73
2022/01/29 02:02:13;;;;;;;5.22;2.47;;;;;;;0.49;90.82;100782.31;6286725;28;20122;-73
2022/01/29 02:05:14;;;;;;;3.78;2.40;;;;;;;0.44;90.60;100783.22;6303338;28;20408;-73
2022/01/29 02:08:16;;;;;;;3.33;1.90;;;;;;;0.43;89.55;100791.78;6302989;28;20072;-73
2022/01/29 02:11:17;;;;;;;3.20;1.90;;;;;;;0.39;85.69;100778.09;6286381;28;20052;-73
2022/01/29 02:14:19;;;;;;;4.47;1.98;;;;;;;0.46;84.66;100789.22;6303092;28;20081;-73
2022/01/29 02:17:20;;;;;;;1.52;1.10;;;;;;;0.42;83.09;100795.22;6321031;28;20119;-73
2022/01/29 02:20:24;;;;;;;2.10;1.05;;;;;;;0.40;82.53;100798.66;6286413;28;20043;-73
2022/01/29 02:23:25;;;;;;;3.33;1.17;;;;;;;0.45;79.66;100798.59;6321009;28;20040;-73
2022/01/29 02:26:26;;;;;;;3.50;1.35;;;;;;;0.46;79.72;100795.19;6302824;28;20123;-73
2022/01/29 02:29:27;;;;;;;2.05;1.10;;;;;;;0.51;77.73;100800.28;6320946;28;20072;-73
2022/01/29 02:32:28;;;;;;;1.17;0.90;;;;;;;0.59;77.05;100801.91;6320980;28;20411;-73
2022/01/29 02:35:28;;;;;;;3.25;1.30;;;;;;;0.62;76.36;100811.34;6303007;28;20040;-73
2022/01/29 02:38:29;;;;;;;2.03;1.38;;;;;;;0.62;75.56;100813.03;6320822;28;20052;-73
2022/01/29 02:41:32;;;;;;;2.70;1.10;;;;;;;0.65;75.49;100811.31;6302948;28;20503;-73
2022/01/29 02:44:33;;;;;;;3.42;1.17;;;;;;;0.57;75.26;100815.66;6302865;28;20516;-73
2022/01/29 02:47:34;;;;;;;1.85;1.10;;;;;;;0.59;75.26;100826.75;6320290;28;20052;-73
2022/01/29 02:50:35;;;;;;;2.13;0.80;;;;;;;0.57;75.36;100831.91;6303644;28;20043;-73
2022/01/29 02:53:36;;;;;;;2.00;0.80;;;;;;;0.60;75.15;100831.88;6325732;28;20036;-73
2022/01/29 02:56:37;;;;;;;2.78;1.20;;;;;;;0.59;74.90;100830.16;6325679;28;20515;-73
2022/01/29 02:59:38;;;;;;;1.70;0.85;;;;;;;0.48;75.55;100834.53;6325675;28;20043;-73
2022/01/29 03:02:39;;;;;;;1.88;1.10;;;;;;;0.51;75.04;100842.22;6307381;28;20059;-73
2022/01/29 03:05:40;;;;;;;2.97;1.00;;;;;;;0.47;77.82;100847.38;6325537;28;20123;-73
2022/01/29 03:08:40;;;;;;;5.40;1.02;;;;;;;0.48;76.89;100856.81;6325214;28;20040;-73
2022/01/29 03:11:41;;;;;;;2.97;1.10;;;;;;;0.44;75.60;100865.41;6307587;28;20055;-73
2022/01/29 03:14:42;;;;;;;2.38;1.35;;;;;;;0.43;76.15;100868.81;6325230;28;20043;-73
2022/01/29 03:17:43;;;;;;;3.22;0.90;;;;;;;0.36;75.54;100875.72;6325163;28;20059;-72
2022/01/29 03:20:44;;;;;;;2.22;0.95;;;;;;;0.45;75.68;100880.78;6307037;28;20064;-72
2022/01/29 03:23:45;;;;;;;1.40;0.90;;;;;;;0.52;75.13;100885.03;6307072;28;20036;-73
2022/01/29 03:26:45;;;;;;;2.00;1.10;;;;;;;0.49;74.88;100877.31;6324763;28;20047;-73
2022/01/29 03:29:46;;;;;;;5.82;2.10;;;;;;;0.43;74.22;100879.09;6290356;28;20040;-73
2022/01/29 03:32:47;;;;;;;2.92;1.73;;;;;;;0.39;74.68;100878.25;6290445;28;20058;-72
2022/01/29 03:35:49;;;;;;;3.53;2.30;;;;;;;0.27;75.49;100884.31;6324831;28;20150;-73
2022/01/29 03:38:50;;;;;;;4.27;2.37;;;;;;;0.24;76.32;100888.59;6324658;28;20040;-73
2022/01/29 03:41:52;;;;;;;2.78;1.67;;;;;;;0.19;76.33;100891.22;6324824;28;20105;-73
2022/01/29 03:44:54;;;;;;;2.17;1.02;;;;;;;0.15;77.10;100900.63;6290132;28;20048;-73
2022/01/29 03:47:55;;;;;;;3.58;1.60;;;;;;;0.09;77.13;100904.94;6289566;28;20059;-72
2022/01/29 03:50:56;;;;;;;3.50;2.10;;;;;;;0.03;78.60;100902.41;6324440;28;20047;-72
2022/01/29 03:53:56;;;;;;;3.85;1.92;;;;;;;-0.01;79.16;100914.38;6306218;28;20051;-72
2022/01/29 03:56:57;;;;;;;3.83;2.15;;;;;;;-0.11;78.75;100910.16;6306085;28;20044;-73
2022/01/29 03:59:58;;;;;;;5.85;3.92;;;;;;;-0.21;79.64;100917.00;6306028;28;20472;-72
2022/01/29 04:02:59;;;;;;;3.58;2.47;;;;;;;-0.28;80.28;100905.91;6323700;28;20047;-72
2022/01/29 04:05:59;;;;;;;3.63;1.88;;;;;;;-0.24;79.96;100914.47;6306111;28;20117;-72
2022/01/29 04:09:05;;;;;;;2.35;1.30;;;;;;;-0.37;80.42;100926.47;6289158;28;20111;-73
2022/01/29 04:12:07;;;;;;;3.47;1.30;;;;;;;-0.35;80.04;100929.00;6306142;28;20060;-72
2022/01/29 04:15:08;;;;;;;5.00;2.28;;;;;;;-0.34;80.40;100930.75;6323885;28;20075;-73
2022/01/29 04:18:09;;;;;;;3.38;1.83;;;;;;;-0.33;80.83;100929.88;6323829;28;20052;-72
2022/01/29 04:21:10;;;;;;;2.65;1.17;;;;;;;-0.27;80.06;100933.28;6289304;28;20047;-72
2022/01/29 04:24:11;;;;;;;2.47;1.67;;;;;;;-0.34;80.59;100928.16;6323651;28;20169;-73
2022/01/29 04:27:19;;;;;;;2.35;1.58;;;;;;;-0.44;81.17;100920.47;6305304;28;20086;-73
2022/01/29 04:30:31;;;;;;;2.10;1.58;;;;;;;-0.51;81.95;100926.50;6306529;28;20097;-73
2022/01/29 04:33:32;;;;;;;3.08;1.90;;;;;;;-0.56;83.12;100925.63;6323377;28;20047;-74
2022/01/29 04:36:33;;;;;;;2.47;1.63;;;;;;;-0.61;83.45;100932.47;6305509;28;20044;-73
2022/01/29 04:39:34;;;;;;;3.97;1.50;;;;;;;-0.66;83.58;100935.06;6305242;28;20048;-73
2022/01/29 04:42:35;;;;;;;2.70;1.80;;;;;;;-0.68;83.56;100939.34;6288632;28;20040;-73
2022/01/29 04:45:35;;;;;;;5.47;3.15;;;;;;;-0.67;84.22;100943.59;6288536;28;20122;-73
2022/01/29 04:48:36;;;;;;;4.97;2.63;;;;;;;-0.59;83.57;100941.03;6288306;28;20032;-73
2022/01/29 04:51:37;;;;;;;5.13;2.40;;;;;;;-0.27;81.21;100946.13;6304993;28;20044;-73
2022/01/29 04:54:38;;;;;;;4.03;2.13;;;;;;;-0.59;81.56;100940.19;6304872;28;20044;-72
2022/01/29 04:57:41;;;;;;;4.18;2.33;;;;;;;-0.67;81.85;100943.59;6304774;28;20048;-72
2022/01/29 05:00:41;;;;;;;6.85;2.58;;;;;;;-0.69;83.68;100941.88;6304643;28;20105;-73
2022/01/29 05:03:42;;;;;;;16.33;5.43;;;;;;;-0.73;81.79;100938.47;6304844;28;20488;-73
2022/01/29 05:06:43;;;;;;;16.35;6.50;;;;;;;-0.77;81.18;100933.34;6304483;28;20040;-73
2022/01/29 05:09:44;;;;;;;12.57;5.18;;;;;;;-0.72;81.26;100941.88;6322575;28;20051;-73
2022/01/29 05:16:29;;;;;;;14.93;7.05;;;;;;;-0.72;83.31;100942.75;6304409;28;20506;-73
2022/01/29 05:29:29;;;;;;;25.02;9.57;;;;;;;-1.04;84.28;100964.06;6321898;28;20047;-73
2022/01/29 05:32:29;;;;;;;20.92;8.63;;;;;;;-1.24;85.60;100968.31;6321951;28;20044;-73
2022/01/29 05:35:30;;;;;;;17.48;7.90;;;;;;;-1.20;85.70;100970.03;6303805;28;20036;-72
2022/01/29 05:38:31;;;;;;;12.40;5.75;;;;;;;-1.26;86.19;100975.13;6321780;28;20090;-72
2022/01/29 05:41:32;;;;;;;7.78;3.55;;;;;;;-1.27;85.44;100981.13;6322289;28;20040;-72
2022/01/29 05:44:33;;;;;;;8.50;3.95;;;;;;;-1.26;85.19;100988.78;6303727;28;20406;-72
2022/01/29 05:47:35;;;;;;;9.95;3.90;;;;;;;-1.24;85.33;100993.91;6321548;28;20060;-72
2022/01/29 05:50:36;;;;;;;6.25;3.10;;;;;;;-1.28;85.77;100985.38;6303348;28;20055;-72
2022/01/29 05:53:37;;;;;;;8.07;3.78;;;;;;;-1.37;85.74;100993.03;6321589;28;20549;-72
2022/01/29 05:56:37;;;;;;;6.57;3.85;;;;;;;-1.36;86.23;101004.13;6321471;28;20066;-72
2022/01/29 05:59:38;;;;;;;9.98;3.85;;;;;;;-1.37;86.88;101005.84;6321333;28;20087;-72
2022/01/29 06:02:39;;;;;;;13.65;6.97;;;;;;;-1.39;86.18;101010.09;6286856;28;20414;-72
2022/01/29 06:05:40;;;;;;;10.35;4.97;;;;;;;-1.44;85.93;101007.53;6303413;28;20040;-72
2022/01/29 06:08:41;;;;;;;10.73;4.63;;;;;;;-1.42;85.75;101020.34;6321160;28;20047;-72
2022/01/29 06:11:41;;;;;;;7.18;4.30;;;;;;;-1.36;85.46;101025.50;6321754;28;20525;-72
2022/01/29 06:14:42;;;;;;;11.23;5.40;;;;;;;-1.35;85.36;101026.34;6303646;28;20115;-73
2022/01/29 06:17:43;;;;;;;6.95;3.63;;;;;;;-1.41;84.88;101029.72;6303165;28;20051;-73
2022/01/29 06:21:04;;;;;;;10.98;4.53;;;;;;;-1.42;86.36;101031.44;6303233;28;20067;-72
2022/01/29 06:24:05;;;;;;;8.65;4.60;;;;;;;-1.51;86.39;101023.69;6320767;28;20100;-73
2022/01/29 06:27:06;;;;;;;10.93;4.95;;;;;;;-1.46;86.12;101026.31;6286248;28;20055;-73
2022/01/29 06:30:07;;;;;;;12.45;5.97;;;;;;;-1.43;86.73;101027.16;6286240;28;20044;-73
2022/01/29 06:33:10;;;;;;;24.10;9.95;;;;;;;-1.43;86.87;101031.41;6303190;28;20063;-73
2022/01/29 06:36:11;;;;;;;27.15;10.80;;;;;;;-1.52;84.81;101027.13;6321090;28;20040;-69
2022/01/29 06:39:12;;;;;;;42.78;14.85;;;;;;;-1.51;85.13;101027.97;6302799;28;20126;-69
2022/01/29 06:42:13;;;;;;;29.98;11.48;;;;;;;-1.53;86.34;101027.13;6320820;28;20036;-68
2022/01/29 06:45:14;;;;;;;48.05;15.63;;;;;;;-1.50;86.25;101024.59;6320602;28;20063;-69
2022/01/29 06:48:15;;;;;;;39.13;14.25;;;;;;;-1.32;83.22;101023.78;6302779;28;20408;-69
2022/01/29 06:51:16;;;;;;;68.10;29.33;;;;;;;-1.30;84.08;101019.50;6320566;28;20085;-68
2022/01/29 06:54:17;;;;;;;98.03;38.57;;;;;;;-1.18;81.92;101028.94;6320643;28;20044;-69
2022/01/29 06:57:18;;;;;;;70.20;30.33;;;;;;;-1.02;81.32;101018.72;6302536;28;20055;-69
2022/01/29 07:00:19;;;;;;;50.80;21.23;;;;;;;-0.92;80.20;101017.03;6320502;28;20476;-69
2022/01/29 07:03:20;;;;;;;33.65;15.27;;;;;;;-0.78;79.05;101016.19;6302714;28;20047;-69
2022/01/29 07:06:21;;;;;;;31.25;14.63;;;;;;;-0.64;77.82;101017.94;6320543;28;20071;-69
2022/01/29 07:09:22;;;;;;;32.35;16.58;;;;;;;-0.57;77.98;101028.19;6320419;28;20042;-69
2022/01/29 07:12:23;;;;;;;48.20;21.50;;;;;;;-0.57;78.51;101030.75;6285819;28;20123;-69
2022/01/29 07:15:24;;;;;;;19.38;10.73;;;;;;;-0.48;78.53;101033.31;6302591;28;20043;-69
2022/01/29 07:18:25;;;;;;;11.38;6.60;;;;;;;-0.42;77.08;101026.47;6285728;28;20093;-69
2022/01/29 07:21:26;;;;;;;10.02;5.28;;;;;;;-0.20;75.48;101018.78;6285800;28;20064;-69
2022/01/29 07:24:27;;;;;;;12.15;4.97;;;;;;;-0.09;74.56;101024.72;6320302;28;20046;-69
2022/01/29 07:27:27;;;;;;;10.60;5.22;;;;;;;0.06;73.85;101018.69;6320199;28;20040;-68
2022/01/29 07:30:28;;;;;;;7.15;4.40;;;;;;;0.16;73.16;101025.53;6320096;28;20086;-69
2022/01/29 07:33:29;;;;;;;8.38;3.85;;;;;;;0.32;72.35;101025.50;6302309;28;20044;-68
2022/01/29 07:36:30;;;;;;;6.68;3.20;;;;;;;0.43;72.35;101038.28;6303026;28;20055;-69
2022/01/29 07:39:32;;;;;;;6.18;3.55;;;;;;;0.51;71.69;101039.94;6268392;28;20396;-69
2022/01/29 07:42:33;;;;;;;5.32;3.25;;;;;;;0.86;71.83;101050.94;6306752;28;20044;-69
2022/01/29 07:45:33;;;;;;;5.35;2.95;;;;;;;0.88;69.66;101049.22;6324477;28;20416;-69
2022/01/29 07:48:34;;;;;;;6.93;3.25;;;;;;;0.80;69.71;101047.56;6306287;28;20040;-69
2022/01/29 07:51:36;;;;;;;3.30;2.30;;;;;;;0.89;69.38;101043.22;6305469;28;20046;-69
2022/01/29 07:54:37;;;;;;;4.90;2.17;;;;;;;0.87;68.61;101048.38;6324087;28;20036;-69
2022/01/29 07:57:37;;;;;;;5.45;2.30;;;;;;;1.10;68.88;101044.81;6305800;28;20062;-69
2022/01/29 08:00:38;;;;;;;6.22;3.70;;;;;;;1.32;68.16;101050.66;6323729;28;20119;-69
2022/01/29 08:03:40;;;;;;;6.13;3.22;;;;;;;1.44;69.21;101054.88;6281180;28;20044;-69
2022/01/29 08:06:40;;;;;;;12.30;3.40;;;;;;;1.41;68.06;101055.75;6301209;28;20066;-69
2022/01/29 08:09:41;;;;;;;10.00;3.45;;;;;;;1.63;67.59;101056.44;6305997;28;20400;-69
2022/01/29 08:12:42;;;;;;;5.65;2.60;;;;;;;1.70;68.45;101047.78;6323909;28;20338;-70
2022/01/29 08:15:42;;;;;;;8.90;2.92;;;;;;;1.78;70.20;101045.16;6305771;28;20111;-71
2022/01/29 08:18:45;;;;;;;5.75;3.13;;;;;;;2.10;68.27;101055.16;6323712;28;20048;-71
2022/01/29 08:21:46;;;;;;;;;;;;;;;2.13;65.04;101057.69;6306542;28;20040;-70
2022/01/29 08:24:47;;;;;;;5.53;2.55;;;;;;;1.98;64.88;101057.84;6323621;28;19962;-73
2022/01/29 08:27:47;;;;;;;8.02;3.85;;;;;;;2.03;65.70;101053.50;6289025;28;20131;-73
2022/01/29 08:30:48;;;;;;;11.18;5.05;;;;;;;2.16;65.64;101056.81;6305443;28;20148;-73
2022/01/29 08:33:49;;;;;;;8.90;4.40;;;;;;;2.12;63.75;101058.56;6305450;28;20122;-74
2022/01/29 08:36:50;;;;;;;9.80;4.43;;;;;;;2.45;63.48;101053.06;6305315;28;20127;-73
2022/01/29 08:39:51;;;;;;;10.25;4.75;;;;;;;2.48;61.61;101050.47;6323727;28;20059;-73
2022/01/29 08:42:52;;;;;;;14.95;5.68;;;;;;;2.57;59.65;101055.50;6323418;28;20492;-73
2022/01/29 08:45:54;;;;;;;12.67;5.87;;;;;;;2.78;61.20;101055.25;6323032;28;20487;-73
2022/01/29 08:48:56;;;;;;;10.10;5.35;;;;;;;2.53;59.12;101054.69;6323133;28;20296;-74
2022/01/29 08:51:57;;;;;;;14.73;6.82;;;;;;;2.41;59.99;101060.00;6322893;28;20470;-73
2022/01/29 08:54:58;;;;;;;18.45;8.95;;;;;;;2.62;59.83;101057.16;6304990;28;20040;-73
2022/01/29 08:57:59;;;;;;;10.38;6.05;;;;;;;2.73;59.82;101069.06;6322827;28;20050;-73
2022/01/29 09:01:00;;;;;;;12.60;6.75;;;;;;;3.01;60.36;101067.81;6304653;28;20068;-73
2022/01/29 09:04:01;;;;;;;12.82;5.93;;;;;;;3.06;57.54;101056.59;6304748;28;20416;-73
2022/01/29 09:07:02;;;;;;;9.82;5.35;;;;;;;3.12;55.82;101059.09;6304541;28;20040;-73
2022/01/29 09:10:04;;;;;;;12.88;6.05;;;;;;;3.02;56.00;101061.78;6304572;28;20115;-73
2022/01/29 09:13:05;;;;;;;9.38;4.47;;;;;;;3.68;56.22;101070.25;6304635;28;20387;-70
2022/01/29 09:16:05;;;;;;;8.18;4.15;;;;;;;3.84;55.20;101047.63;6322478;28;20040;-70
2022/01/29 09:19:06;;;;;;;6.45;3.13;;;;;;;3.53;56.88;101058.47;6287761;28;20579;-70
2022/01/29 09:22:07;;;;;;;5.80;2.80;;;;;;;3.73;55.67;101046.97;6322260;28;20107;-69
2022/01/29 09:25:09;;;;;;;4.20;2.20;;;;;;;3.77;53.76;101051.22;6304410;28;20098;-70
2022/01/29 09:28:12;;;;;;;4.20;2.45;;;;;;;3.32;52.30;101056.22;6322013;28;20036;-69
2022/01/29 09:31:13;;;;;;;3.88;2.05;;;;;;;3.23;53.24;101049.44;6322030;28;20517;-70
2022/01/29 09:34:14;;;;;;;3.92;1.73;;;;;;;3.19;52.97;101051.25;6287256;28;20149;-73
2022/01/29 09:37:15;;;;;;;5.10;2.38;;;;;;;3.15;53.39;101054.75;6321930;28;20047;-73
2022/01/29 09:40:17;;;;;;;8.10;3.03;;;;;;;3.06;55.87;101054.00;6321770;28;20044;-73
2022/01/29 09:43:21;;;;;;;6.50;3.00;;;;;;;3.22;57.13;101051.19;6322015;28;20044;-73
2022/01/29 09:46:23;;;;;;;4.07;2.50;;;;;;;3.50;56.21;101050.78;6303816;28;20048;-73
2022/01/29 09:49:23;;;;;;;6.32;2.78;;;;;;;3.52;56.61;101046.44;6303706;28;20047;-73
2022/01/29 09:52:25;;;;;;;10.90;3.38;;;;;;;3.70;56.34;101045.28;6303504;28;20512;-73
2022/01/29 09:55:26;;;;;;;4.32;2.17;;;;;;;3.92;54.16;101044.91;6321552;28;20122;-73
2022/01/29 09:58:27;;;;;;;5.63;2.63;;;;;;;4.15;53.21;101040.16;6303469;28;20059;-73
2022/01/29 10:01:28;;;;;;;5.40;2.30;;;;;;;4.27;52.63;101044.25;6269867;28;20123;-73
2022/01/29 10:04:54;;;;;;;4.75;2.20;;;;;;;4.44;52.96;101041.34;6303508;28;20047;-73
2022/01/29 10:08:00;;;;;;;5.22;2.00;;;;;;;3.95;55.22;101040.53;6321321;28;20075;-74
2022/01/29 10:11:02;;;;;;;5.78;2.50;;;;;;;3.80;57.87;101045.97;6303131;28;20483;-73
2022/01/29 10:14:05;;;;;;;4.83;2.23;;;;;;;3.67;57.44;101047.06;6303491;28;20040;-74
2022/01/29 10:17:05;;;;;;;;;;;;;;;3.61;60.32;101046.28;6303726;28;20164;-74
2022/01/29 10:20:12;;;;;;;4.03;2.38;;;;;;;3.50;59.88;101043.03;6321255;28;19927;-74
2022/01/29 10:23:13;;;;;;;5.82;3.03;;;;;;;3.69;59.99;101043.59;6321064;28;20059;-74
2022/01/29 10:26:38;;;;;;;6.30;2.67;;;;;;;4.06;56.11;101036.91;6286395;28;20047;-73
2022/01/29 10:29:39;;;;;;;4.35;2.40;;;;;;;4.18;56.22;101036.66;6320910;28;20051;-73
2022/01/29 10:32:39;;;;;;;4.20;2.67;;;;;;;3.89;60.00;101032.91;6286238;28;20036;-74
2022/01/29 10:35:45;;;;;;;4.72;2.70;;;;;;;3.83;60.86;101028.72;6270078;28;20063;-73
2022/01/29 10:38:55;;;;;;;5.88;2.97;;;;;;;3.91;60.59;101023.41;6302888;28;20047;-73
2022/01/29 10:41:56;;;;;;;5.32;2.67;;;;;;;3.88;61.12;101015.72;6286398;28;20098;-74
2022/01/29 10:45:02;;;;;;;9.98;3.58;;;;;;;3.90;59.79;101013.09;6320778;28;20484;-74
2022/01/29 10:48:06;;;;;;;6.68;3.03;;;;;;;4.09;60.61;101008.44;6278185;28;20040;-74
2022/01/29 10:51:11;;;;;;;13.90;6.63;;;;;;;4.32;59.08;101003.66;6277901;28;20120;-74
2022/01/29 10:54:18;;;;;;;8.85;3.67;;;;;;;4.34;59.29;100996.75;6261537;28;20502;-74
2022/01/29 10:57:19;;;;;;;3.55;2.53;;;;;;;4.90;58.24;101005.91;6295539;28;20045;-73
2022/01/29 11:00:24;;;;;;;5.03;2.47;;;;;;;4.85;52.04;101006.03;6277562;28;20516;-73
2022/01/29 11:03:25;;;;;;;4.68;2.60;;;;;;;4.85;52.56;100993.09;6295323;28;20048;-74
2022/01/29 11:06:33;;;;;;;5.35;2.92;;;;;;;4.76;54.16;100993.31;6277769;28;20521;-74
2022/01/29 11:09:34;;;;;;;5.70;3.03;;;;;;;4.82;55.18;100988.84;6277494;28;20040;-73
2022/01/29 11:12:38;;;;;;;8.85;3.90;;;;;;;5.17;54.23;100986.34;6279925;28;20114;-73
2022/01/29 11:15:40;;;;;;;5.85;3.70;;;;;;;5.10;52.33;100990.78;6266057;28;20039;-74
2022/01/29 11:18:41;;;;;;;7.85;3.55;;;;;;;5.36;53.35;100978.97;6300088;28;20051;-74
2022/01/29 11:21:43;;;;;;;8.23;3.03;;;;;;;5.25;52.75;100981.84;6282177;28;20056;-74
2022/01/29 11:24:47;;;;;;;14.93;6.65;;;;;;;5.21;50.50;100975.88;6299955;28;20040;-74
2022/01/29 11:28:13;;;;;;;9.35;4.53;;;;;;;5.22;48.23;100974.97;6298591;28;20124;-68
2022/01/29 11:31:13;;;;;;;7.93;3.50;;;;;;;5.36;47.97;100974.66;6299887;28;20040;-69
2022/01/29 11:34:14;;;;;;;5.78;2.20;;;;;;;5.44;47.63;100972.72;6281987;28;20488;-69
2022/01/29 11:37:15;;;;;;;8.13;2.53;;;;;;;5.44;47.80;100974.47;6299827;28;20083;-69
2022/01/29 11:40:20;;;;;;;5.78;3.20;;;;;;;5.61;48.52;100964.50;6265490;28;20040;-69
2022/01/29 11:43:25;;;;;;;6.50;2.58;;;;;;;5.68;48.01;100965.19;6299440;28;20041;-69
2022/01/29 11:46:30;;;;;;;25.10;6.70;;;;;;;5.89;50.30;100955.16;6293463;28;20048;-69
2022/01/29 11:49:33;;;;;;;11.95;5.32;;;;;;;5.91;49.39;100954.25;6306476;28;20454;-69
2022/01/29 11:52:53;;;;;;;3.05;1.40;;;;;;;5.65;46.57;100940.25;6324361;28;20635;-68
2022/01/29 11:55:56;;;;;;;29.88;22.08;;;;;;;5.54;46.68;100949.16;6306339;28;20137;-68
2022/01/29 11:59:21;;;;;;;2.67;1.60;;;;;;;5.32;48.09;100930.78;6324393;28;20040;-69
2022/01/29 12:02:24;;;;;;;5.35;1.60;;;;;;;5.43;49.29;100933.94;6324190;28;20092;-69
2022/01/29 12:05:30;;;;;;;1.92;1.50;;;;;;;5.43;50.57;100934.75;6324205;28;20487;-69
2022/01/29 12:08:37;;;;;;;7.60;1.73;;;;;;;5.18;47.91;100929.38;6306068;28;20044;-69
2022/01/29 12:11:41;;;;;;;5.25;1.75;;;;;;;5.27;48.89;100930.03;6324105;28;20260;-70
2022/01/29 12:14:44;;;;;;;4.63;2.05;;;;;;;5.32;48.89;100917.84;6289417;28;20046;-69
2022/01/29 12:17:51;;;;;;;;;;;;;;;5.31;48.57;100918.72;6306597;28;20040;-68
2022/01/29 12:20:52;;;;;;;4.15;1.52;;;;;;;5.14;47.87;100912.22;6323852;28;19920;-69
2022/01/29 12:23:52;;;;;;;3.80;1.08;;;;;;;5.17;46.66;100899.22;6323340;28;20109;-69
2022/01/29 12:26:57;;;;;;;4.00;1.60;;;;;;;5.35;48.64;100897.03;6323591;28;20123;-69
2022/01/29 12:29:58;;;;;;;4.93;1.67;;;;;;;5.40;46.75;100898.63;6323713;28;20093;-73
2022/01/29 12:33:08;;;;;;;4.88;2.10;;;;;;;5.53;47.43;100883.63;6272137;28;20044;-73
2022/01/29 12:36:09;;;;;;;3.42;1.83;;;;;;;5.67;48.74;100875.47;6323596;28;20105;-73
2022/01/29 12:39:10;;;;;;;6.50;1.80;;;;;;;5.60;47.01;100872.22;6323322;28;20050;-73
2022/01/29 12:45:20;;;;;;;6.13;1.73;;;;;;;5.48;46.07;100871.69;6323466;28;20044;-73
2022/01/29 12:48:21;;;;;;;2.95;1.55;;;;;;;5.60;46.34;100866.16;6323316;28;20033;-73
2022/01/29 12:51:22;;;;;;;2.35;1.65;;;;;;;5.76;45.96;100862.25;6323231;28;20043;-73
2022/01/29 12:54:25;;;;;;;3.15;1.58;;;;;;;5.48;46.73;100862.19;6322750;28;20378;-73
2022/01/29 12:57:49;;;;;;;4.15;1.60;;;;;;;5.55;46.43;100853.34;6322871;28;20128;-73
2022/01/29 13:01:04;;;;;;;1.85;1.10;;;;;;;5.55;47.38;100847.34;6322910;28;20040;-73
2022/01/29 13:04:08;;;;;;;9.40;4.40;;;;;;;5.50;48.03;100837.13;6304606;28;20048;-73
2022/01/29 13:07:09;;;;;;;3.58;1.85;;;;;;;5.42;46.83;100832.13;6322683;28;20097;-73
2022/01/29 13:10:12;;;;;;;3.97;2.13;;;;;;;5.55;47.01;100827.47;6322612;28;20068;-73
2022/01/29 13:13:27;;;;;;;5.07;2.00;;;;;;;5.61;46.12;100822.13;6304523;28;20047;-73
2022/01/29 13:16:32;;;;;;;5.53;2.17;;;;;;;5.62;47.70;100823.81;6322474;28;20044;-73
2022/01/29 13:19:35;;;;;;;3.30;1.40;;;;;;;5.50;46.27;100820.72;6322534;28;20040;-73
2022/01/29 13:22:40;;;;;;;3.58;1.25;;;;;;;5.46;46.01;100812.22;6322440;28;20040;-73
2022/01/29 13:25:41;;;;;;;6.38;1.95;;;;;;;5.49;44.78;100808.69;6322340;28;20044;-69
2022/01/29 13:28:47;;;;;;;9.77;1.50;;;;;;;5.45;45.29;100810.50;6304284;28;20040;-69
2022/01/29 13:31:47;;;;;;;5.80;2.00;;;;;;;5.36;45.41;100805.59;6322346;28;20040;-69
2022/01/29 13:34:48;;;;;;;3.28;1.23;;;;;;;5.24;46.40;100796.41;6321497;28;20462;-69
2022/01/29 13:37:51;;;;;;;2.35;1.45;;;;;;;5.18;46.06;100792.25;6322537;28;20040;-69
2022/01/29 13:40:55;;;;;;;3.25;1.50;;;;;;;5.28;47.51;100798.03;6304264;28;20047;-71
2022/01/29 13:44:08;;;;;;;3.25;1.40;;;;;;;4.98;47.56;100781.56;6321868;28;20048;-69
2022/01/29 13:47:09;;;;;;;2.78;1.50;;;;;;;4.85;48.57;100781.88;6321685;28;20056;-69
2022/01/29 13:50:28;;;;;;;5.95;2.15;;;;;;;4.87;48.94;100779.28;6303702;28;20385;-69
2022/01/29 13:53:41;;;;;;;11.23;2.30;;;;;;;4.95;48.48;100772.16;6287115;28;20399;-69
2022/01/29 13:56:42;;;;;;;4.55;1.63;;;;;;;5.06;49.18;100764.09;6321599;28;20051;-69
2022/01/29 13:59:46;;;;;;;4.72;2.40;;;;;;;5.11;49.68;100766.59;6321556;28;20420;-69
2022/01/29 14:02:48;;;;;;;6.28;2.65;;;;;;;5.25;50.34;100757.56;6303471;28;20039;-70
2022/01/29 14:05:49;;;;;;;4.03;2.25;;;;;;;5.17;48.83;100750.91;6286989;28;20068;-70
2022/01/29 14:09:31;;;;;;;11.82;5.70;;;;;;;4.79;49.35;100747.59;6286714;28;20048;-70
2022/01/29 14:12:46;;;;;;;7.22;3.45;;;;;;;4.74;50.72;100739.97;6321349;28;20511;-73
2022/01/29 14:15:47;;;;;;;12.50;5.50;;;;;;;4.85;50.87;100735.34;6321444;28;20127;-74
2022/01/29 14:18:48;;;;;;;7.63;3.17;;;;;;;4.81;51.88;100730.31;6321336;28;20047;-73
2022/01/29 14:21:51;;;;;;;2.97;1.55;;;;;;;4.56;52.69;100732.69;6321108;28;20036;-73
2022/01/29 14:24:52;;;;;;;;;;;;;;;4.51;53.23;100734.50;6303614;28;20036;-73
2022/01/29 14:27:55;;;;;;;7.25;3.00;;;;;;;4.34;53.30;100748.69;6321002;28;19924;-73
2022/01/29 14:30:55;;;;;;;8.07;3.30;;;;;;;4.38;52.72;100742.56;6321106;28;20048;-73